Wetterdaten: Woche 09.11.09 - 15.11.09 (KW46)
Datum Zeit Temperatur Luftfeuchte Luftdruck Niederschlag Wind Richtung Sonnenschein Solar Taupunkt Windchill Windben
09.11.2009 00:00 4.5 C 92 % 1003.7 hPa 0.0 l/m 0.2 km/h (0 Bft) O-NO 0.00 h 0 W/m 3.3 C 4.5 C 0.6 km/h (0 Bft)
09.11.2009 01:00 4.4 C 93 % 1003.9 hPa 0.0 l/m 0.7 km/h (0 Bft) O-NO 0.00 h 0 W/m 3.4 C 4.4 C 1.8 km/h (1 Bft)
09.11.2009 02:00 4.4 C 92 % 1004.2 hPa 0.2 l/m 1.8 km/h (1 Bft) NO 0.00 h 0 W/m 3.2 C 4.3 C 4.6 km/h (1 Bft)
09.11.2009 03:00 4.5 C 91 % 1004.6 hPa 0.2 l/m 0.6 km/h (0 Bft) NO 0.00 h 0 W/m 3.2 C 4.5 C 2.1 km/h (1 Bft)
09.11.2009 04:00 4.4 C 92 % 1004.8 hPa 0.2 l/m 0.0 km/h (0 Bft) N 0.00 h 0 W/m 3.1 C 4.4 C 0.0 km/h (0 Bft)
09.11.2009 05:00 4.2 C 92 % 1005.2 hPa 0.4 l/m 0.0 km/h (0 Bft) N 0.00 h 0 W/m 3.0 C 4.2 C 0.1 km/h (0 Bft)
09.11.2009 06:00 4.3 C 93 % 1005.3 hPa 0.4 l/m 0.0 km/h (0 Bft) N 0.00 h 0 W/m 3.3 C 4.3 C 0.1 km/h (0 Bft)
09.11.2009 07:00 4.2 C 95 % 1006.0 hPa 0.0 l/m 0.3 km/h (0 Bft) N 0.00 h 6 W/m 3.5 C 4.2 C 1.2 km/h (1 Bft)
09.11.2009 08:00 4.3 C 96 % 1006.8 hPa 0.2 l/m 0.1 km/h (0 Bft) NO 0.00 h 26 W/m 3.8 C 4.3 C 0.5 km/h (0 Bft)
09.11.2009 09:00 4.9 C 97 % 1007.0 hPa 0.0 l/m 0.4 km/h (0 Bft) SO 0.02 h 118 W/m 4.5 C 4.9 C 1.8 km/h (1 Bft)
09.11.2009 10:00 5.7 C 97 % 1007.3 hPa 0.0 l/m 0.5 km/h (0 Bft) S 0.00 h 97 W/m 5.2 C 5.7 C 2.2 km/h (1 Bft)
09.11.2009 11:00 6.1 C 96 % 1007.5 hPa 0.2 l/m 0.7 km/h (0 Bft) W-NW 0.00 h 78 W/m 5.5 C 6.1 C 1.8 km/h (1 Bft)
09.11.2009 12:00 6.0 C 95 % 1007.5 hPa 0.4 l/m 0.8 km/h (0 Bft) W 0.00 h 74 W/m 5.3 C 6.0 C 2.5 km/h (1 Bft)
09.11.2009 13:00 6.1 C 95 % 1008.0 hPa 0.4 l/m 0.3 km/h (0 Bft) SW 0.00 h 55 W/m 5.4 C 6.1 C 1.6 km/h (1 Bft)
09.11.2009 14:00 5.8 C 95 % 1008.1 hPa 0.6 l/m 2.5 km/h (1 Bft) W 0.00 h 38 W/m 5.1 C 5.7 C 4.6 km/h (1 Bft)
09.11.2009 15:00 5.4 C 95 % 1008.5 hPa 0.4 l/m 3.7 km/h (1 Bft) W 0.00 h 28 W/m 4.7 C 5.1 C 6.3 km/h (2 Bft)
09.11.2009 16:00 4.8 C 95 % 1009.1 hPa 0.2 l/m 4.3 km/h (1 Bft) W-SW 0.00 h 10 W/m 4.0 C 4.0 C 7.3 km/h (2 Bft)
09.11.2009 17:00 4.3 C 95 % 1009.8 hPa 0.0 l/m 0.3 km/h (0 Bft) S-SW 0.00 h 0 W/m 3.6 C 4.3 C 1.6 km/h (1 Bft)
09.11.2009 18:00 4.1 C 95 % 1010.3 hPa 0.0 l/m 2.9 km/h (1 Bft) W-SW 0.00 h 0 W/m 3.3 C 3.7 C 5.4 km/h (1 Bft)
09.11.2009 19:00 3.8 C 96 % 1010.9 hPa 0.0 l/m 2.9 km/h (1 Bft) W 0.00 h 0 W/m 3.2 C 3.4 C 5.3 km/h (1 Bft)
09.11.2009 20:00 3.7 C 96 % 1011.3 hPa 0.2 l/m 3.4 km/h (1 Bft) W 0.00 h 0 W/m 3.1 C 3.2 C 6.0 km/h (2 Bft)
09.11.2009 21:00 3.6 C 96 % 1011.6 hPa 0.2 l/m 4.7 km/h (1 Bft) W 0.00 h 0 W/m 3.0 C 2.6 C 7.9 km/h (2 Bft)
09.11.2009 22:00 3.4 C 97 % 1011.8 hPa 0.0 l/m 1.9 km/h (1 Bft) W 0.00 h 0 W/m 3.0 C 3.1 C 3.5 km/h (1 Bft)
09.11.2009 23:00 3.3 C 97 % 1011.9 hPa 0.0 l/m 2.8 km/h (1 Bft) W-SW 0.00 h 0 W/m 2.9 C 3.0 C 5.1 km/h (1 Bft)
10.11.2009 00:00 3.2 C 97 % 1011.9 hPa 0.0 l/m 3.9 km/h (1 Bft) W-NW 0.00 h 0 W/m 2.8 C 2.6 C 6.9 km/h (2 Bft)
10.11.2009 01:00 3.3 C 97 % 1011.9 hPa 0.0 l/m 4.9 km/h (1 Bft) W 0.00 h 0 W/m 2.9 C 2.3 C 7.8 km/h (2 Bft)
10.11.2009 02:00 3.3 C 97 % 1012.2 hPa 0.0 l/m 4.6 km/h (1 Bft) W-SW 0.00 h 0 W/m 2.9 C 2.5 C 7.1 km/h (2 Bft)
10.11.2009 03:00 3.4 C 96 % 1012.1 hPa 0.0 l/m 3.7 km/h (1 Bft) W-NW 0.00 h 0 W/m 2.8 C 2.9 C 6.2 km/h (2 Bft)
10.11.2009 04:00 3.4 C 96 % 1012.1 hPa 0.0 l/m 4.8 km/h (1 Bft) W 0.00 h 0 W/m 2.8 C 2.6 C 7.5 km/h (2 Bft)
10.11.2009 05:00 3.5 C 95 % 1012.0 hPa 0.0 l/m 3.7 km/h (1 Bft) W 0.00 h 0 W/m 2.8 C 3.0 C 6.5 km/h (2 Bft)
10.11.2009 06:00 3.7 C 95 % 1012.2 hPa 0.0 l/m 0.6 km/h (0 Bft) SW 0.00 h 0 W/m 2.9 C 3.6 C 2.1 km/h (1 Bft)
10.11.2009 07:00 3.8 C 95 % 1012.4 hPa 0.0 l/m 0.4 km/h (0 Bft) SW 0.00 h 5 W/m 3.1 C 3.8 C 1.7 km/h (1 Bft)
10.11.2009 08:00 4.0 C 95 % 1012.6 hPa 0.0 l/m 0.3 km/h (0 Bft) S-SW 0.00 h 12 W/m 3.2 C 4.0 C 1.3 km/h (1 Bft)
10.11.2009 09:00 4.3 C 95 % 1012.5 hPa 0.0 l/m 0.4 km/h (0 Bft) SW 0.00 h 25 W/m 3.6 C 4.3 C 1.9 km/h (1 Bft)
10.11.2009 10:00 4.7 C 95 % 1012.5 hPa 0.0 l/m 0.8 km/h (0 Bft) SW 0.00 h 62 W/m 4.0 C 4.7 C 2.3 km/h (1 Bft)
10.11.2009 11:00 5.2 C 93 % 1012.5 hPa 0.0 l/m 4.0 km/h (1 Bft) W 0.00 h 87 W/m 4.2 C 4.7 C 6.4 km/h (2 Bft)
10.11.2009 12:00 5.4 C 89 % 1012.2 hPa 0.0 l/m 4.4 km/h (1 Bft) W-NW 0.00 h 69 W/m 3.8 C 4.8 C 7.5 km/h (2 Bft)
10.11.2009 13:00 5.6 C 87 % 1011.8 hPa 0.0 l/m 5.6 km/h (1 Bft) W 0.00 h 71 W/m 3.6 C 4.6 C 9.0 km/h (2 Bft)
10.11.2009 14:00 5.7 C 86 % 1011.4 hPa 0.0 l/m 4.9 km/h (1 Bft) W 0.00 h 39 W/m 3.5 C 5.0 C 7.9 km/h (2 Bft)
10.11.2009 15:00 5.6 C 86 % 1011.3 hPa 0.0 l/m 6.1 km/h (2 Bft) W 0.00 h 17 W/m 3.5 C 4.4 C 9.3 km/h (2 Bft)
10.11.2009 16:00 5.4 C 87 % 1011.2 hPa 0.0 l/m 5.0 km/h (1 Bft) W-NW 0.00 h 10 W/m 3.5 C 4.7 C 8.0 km/h (2 Bft)
10.11.2009 17:00 5.4 C 88 % 1011.3 hPa 0.0 l/m 3.3 km/h (1 Bft) W-NW 0.00 h 0 W/m 3.5 C 5.2 C 5.6 km/h (1 Bft)
10.11.2009 18:00 5.4 C 87 % 1011.4 hPa 0.0 l/m 2.2 km/h (1 Bft) W-NW 0.00 h 0 W/m 3.4 C 5.2 C 4.0 km/h (1 Bft)
10.11.2009 19:00 5.4 C 88 % 1011.4 hPa 0.0 l/m 0.4 km/h (0 Bft) W-NW 0.00 h 0 W/m 3.5 C 5.4 C 1.3 km/h (1 Bft)
10.11.2009 20:00 5.3 C 89 % 1011.4 hPa 0.0 l/m 3.4 km/h (1 Bft) W 0.00 h 0 W/m 3.6 C 5.0 C 6.4 km/h (2 Bft)
10.11.2009 21:00 5.3 C 88 % 1011.5 hPa 0.0 l/m 3.8 km/h (1 Bft) W 0.00 h 0 W/m 3.5 C 4.9 C 6.4 km/h (2 Bft)
10.11.2009 22:00 5.3 C 88 % 1011.3 hPa 0.0 l/m 1.9 km/h (1 Bft) W 0.00 h 0 W/m 3.5 C 5.2 C 4.2 km/h (1 Bft)
10.11.2009 23:00 5.3 C 89 % 1011.2 hPa 0.0 l/m 2.8 km/h (1 Bft) W 0.00 h 0 W/m 3.6 C 5.1 C 5.2 km/h (1 Bft)
11.11.2009 00:00 5.1 C 89 % 1011.1 hPa 0.0 l/m 1.3 km/h (1 Bft) W-SW 0.00 h 0 W/m 3.5 C 5.1 C 2.7 km/h (1 Bft)
11.11.2009 01:00 5.1 C 89 % 1011.1 hPa 0.0 l/m 0.4 km/h (0 Bft) W-SW 0.00 h 0 W/m 3.5 C 5.1 C 1.5 km/h (1 Bft)
11.11.2009 02:00 5.0 C 90 % 1011.0 hPa 0.0 l/m 0.0 km/h (0 Bft) N 0.00 h 0 W/m 3.5 C 5.0 C 0.0 km/h (0 Bft)
11.11.2009 03:00 4.9 C 90 % 1010.7 hPa 0.0 l/m 0.0 km/h (0 Bft) N 0.00 h 0 W/m 3.4 C 4.9 C 0.0 km/h (0 Bft)
11.11.2009 04:00 4.9 C 91 % 1010.7 hPa 0.0 l/m 0.0 km/h (0 Bft) N 0.00 h 0 W/m 3.4 C 4.9 C 0.0 km/h (0 Bft)
11.11.2009 05:00 4.7 C 92 % 1010.8 hPa 0.0 l/m 0.1 km/h (0 Bft) O-SO 0.00 h 0 W/m 3.5 C 4.7 C 0.7 km/h (0 Bft)
11.11.2009 06:00 4.6 C 93 % 1010.8 hPa 0.0 l/m 0.1 km/h (0 Bft) O-SO 0.00 h 0 W/m 3.6 C 4.6 C 0.4 km/h (0 Bft)
11.11.2009 07:00 4.6 C 94 % 1010.8 hPa 0.0 l/m 0.0 km/h (0 Bft) N 0.00 h 8 W/m 3.7 C 4.6 C 0.0 km/h (0 Bft)
11.11.2009 08:00 4.7 C 95 % 1011.3 hPa 0.0 l/m 0.3 km/h (0 Bft) O-SO 0.00 h 30 W/m 4.0 C 4.7 C 0.8 km/h (0 Bft)
11.11.2009 09:00 5.2 C 95 % 1011.2 hPa 0.0 l/m 0.0 km/h (0 Bft) N 0.00 h 81 W/m 4.4 C 5.2 C 0.2 km/h (0 Bft)
11.11.2009 10:00 6.3 C 93 % 1011.1 hPa 0.0 l/m 0.3 km/h (0 Bft) O-SO 0.02 h 172 W/m 5.3 C 6.3 C 1.5 km/h (1 Bft)
11.11.2009 11:00 7.9 C 81 % 1010.9 hPa 0.0 l/m 1.8 km/h (1 Bft) W 1.00 h 357 W/m 4.8 C 7.8 C 4.0 km/h (1 Bft)
11.11.2009 12:00 8.9 C 73 % 1010.3 hPa 0.0 l/m 3.1 km/h (1 Bft) N-NW 0.68 h 383 W/m 4.3 C 8.8 C 5.6 km/h (1 Bft)
11.11.2009 13:00 9.1 C 69 % 1010.0 hPa 0.0 l/m 1.0 km/h (0 Bft) N-NW 0.20 h 172 W/m 3.7 C 9.1 C 2.7 km/h (1 Bft)
11.11.2009 14:00 9.3 C 67 % 1009.9 hPa 0.0 l/m 0.8 km/h (0 Bft) SO 0.33 h 161 W/m 3.6 C 9.3 C 2.5 km/h (1 Bft)
11.11.2009 15:00 9.3 C 66 % 1009.9 hPa 0.0 l/m 1.7 km/h (1 Bft) SO 0.92 h 157 W/m 3.4 C 9.3 C 3.8 km/h (1 Bft)
11.11.2009 16:00 9.2 C 69 % 1010.2 hPa 0.0 l/m 1.4 km/h (1 Bft) SO 0.68 h 40 W/m 3.8 C 9.1 C 2.8 km/h (1 Bft)
11.11.2009 17:00 7.2 C 77 % 1010.6 hPa 0.0 l/m 2.5 km/h (1 Bft) O-SO 0.00 h 0 W/m 3.5 C 7.1 C 3.7 km/h (1 Bft)
11.11.2009 18:00 4.8 C 85 % 1011.3 hPa 0.0 l/m 4.5 km/h (1 Bft) O-SO 0.00 h 0 W/m 2.5 C 4.0 C 6.2 km/h (2 Bft)
11.11.2009 19:00 3.4 C 89 % 1011.8 hPa 0.0 l/m 3.6 km/h (1 Bft) O-SO 0.00 h 0 W/m 1.7 C 2.8 C 4.8 km/h (1 Bft)
11.11.2009 20:00 2.8 C 92 % 1012.4 hPa 0.0 l/m 1.2 km/h (1 Bft) O-SO 0.00 h 0 W/m 1.5 C 2.8 C 2.0 km/h (1 Bft)
11.11.2009 21:00 2.1 C 93 % 1012.6 hPa 0.0 l/m 3.9 km/h (1 Bft) O-SO 0.00 h 0 W/m 1.1 C 1.4 C 5.1 km/h (1 Bft)
11.11.2009 22:00 1.5 C 94 % 1012.6 hPa 0.0 l/m 2.3 km/h (1 Bft) O-SO 0.00 h 0 W/m 0.6 C 1.2 C 3.4 km/h (1 Bft)
11.11.2009 23:00 1.1 C 95 % 1012.5 hPa 0.0 l/m 0.8 km/h (0 Bft) O-SO 0.00 h 0 W/m 0.3 C 1.1 C 2.0 km/h (1 Bft)
12.11.2009 00:00 0.8 C 96 % 1012.7 hPa 0.0 l/m 1.0 km/h (0 Bft) O-SO 0.00 h 0 W/m 0.1 C 0.7 C 1.8 km/h (1 Bft)
12.11.2009 01:00 1.4 C 97 % 1012.9 hPa 0.0 l/m 1.0 km/h (0 Bft) O-SO 0.00 h 0 W/m 1.0 C 1.4 C 2.1 km/h (1 Bft)
12.11.2009 02:00 1.6 C 97 % 1012.9 hPa 0.0 l/m 1.1 km/h (1 Bft) O-SO 0.00 h 0 W/m 1.2 C 1.6 C 2.2 km/h (1 Bft)
12.11.2009 03:00 1.6 C 98 % 1012.5 hPa 0.0 l/m 0.0 km/h (0 Bft) N 0.00 h 0 W/m 1.3 C 1.6 C 0.6 km/h (0 Bft)
12.11.2009 04:00 1.7 C 98 % 1012.5 hPa 0.0 l/m 0.2 km/h (0 Bft) SO 0.00 h 0 W/m 1.4 C 1.7 C 1.3 km/h (1 Bft)
12.11.2009 05:00 1.4 C 98 % 1012.5 hPa 0.0 l/m 0.4 km/h (0 Bft) S 0.00 h 0 W/m 1.1 C 1.4 C 1.2 km/h (1 Bft)
12.11.2009 06:00 1.4 C 99 % 1012.6 hPa 0.0 l/m 0.3 km/h (0 Bft) SW 0.00 h 0 W/m 1.3 C 1.4 C 1.0 km/h (0 Bft)
12.11.2009 07:00 1.5 C 99 % 1012.8 hPa 0.2 l/m 0.1 km/h (0 Bft) SW 0.05 h 11 W/m 1.3 C 1.5 C 0.3 km/h (0 Bft)
12.11.2009 08:00 1.9 C 99 % 1012.9 hPa 0.0 l/m 0.6 km/h (0 Bft) NW 0.00 h 32 W/m 1.8 C 1.9 C 1.2 km/h (1 Bft)
12.11.2009 09:00 2.6 C 99 % 1013.3 hPa 0.4 l/m 0.2 km/h (0 Bft) NW 0.00 h 42 W/m 2.5 C 2.6 C 0.9 km/h (0 Bft)
12.11.2009 10:00 3.5 C 100 % 1013.6 hPa 0.0 l/m 0.2 km/h (0 Bft) NW 0.00 h 75 W/m 3.5 C 3.5 C 1.1 km/h (1 Bft)
12.11.2009 11:00 4.4 C 100 % 1013.9 hPa 0.2 l/m 0.3 km/h (0 Bft) NW 0.00 h 70 W/m 4.4 C 4.4 C 1.3 km/h (1 Bft)
12.11.2009 12:00 4.8 C 100 % 1013.8 hPa 0.2 l/m 0.7 km/h (0 Bft) NW 0.00 h 68 W/m 4.8 C 4.8 C 2.1 km/h (1 Bft)
12.11.2009 13:00 5.1 C 100 % 1013.7 hPa 0.0 l/m 0.5 km/h (0 Bft) NW 0.00 h 55 W/m 5.1 C 5.1 C 1.8 km/h (1 Bft)
12.11.2009 14:00 5.3 C 100 % 1013.7 hPa 0.0 l/m 0.1 km/h (0 Bft) NW 0.00 h 26 W/m 5.3 C 5.3 C 0.4 km/h (0 Bft)
12.11.2009 15:00 5.5 C 100 % 1013.9 hPa 0.0 l/m 0.2 km/h (0 Bft) NW 0.00 h 24 W/m 5.5 C 5.5 C 0.9 km/h (0 Bft)
12.11.2009 16:00 5.7 C 100 % 1014.1 hPa 0.0 l/m 0.3 km/h (0 Bft) NW 0.00 h 22 W/m 5.7 C 5.7 C 1.1 km/h (1 Bft)
12.11.2009 17:00 5.7 C 100 % 1014.2 hPa 0.0 l/m 0.0 km/h (0 Bft) NW 0.00 h 0 W/m 5.7 C 5.7 C 0.2 km/h (0 Bft)
12.11.2009 18:00 5.7 C 100 % 1014.6 hPa 0.2 l/m 0.1 km/h (0 Bft) NW 0.00 h 0 W/m 5.7 C 5.7 C 0.6 km/h (0 Bft)
12.11.2009 19:00 5.7 C 100 % 1014.9 hPa 0.0 l/m 0.1 km/h (0 Bft) N 0.00 h 0 W/m 5.7 C 5.7 C 0.5 km/h (0 Bft)
12.11.2009 20:00 5.4 C 100 % 1015.4 hPa 0.0 l/m 0.4 km/h (0 Bft) O-SO 0.00 h 0 W/m 5.4 C 5.4 C 1.0 km/h (0 Bft)
12.11.2009 21:00 5.3 C 100 % 1015.5 hPa 0.0 l/m 0.0 km/h (0 Bft) O-SO 0.00 h 0 W/m 5.3 C 5.3 C 0.2 km/h (0 Bft)
12.11.2009 22:00 5.4 C 100 % 1015.7 hPa 0.0 l/m 0.5 km/h (0 Bft) O-SO 0.00 h 0 W/m 5.4 C 5.3 C 1.0 km/h (0 Bft)
12.11.2009 23:00 5.4 C 100 % 1015.6 hPa 0.0 l/m 0.6 km/h (0 Bft) O-SO 0.00 h 0 W/m 5.4 C 5.4 C 1.3 km/h (1 Bft)
13.11.2009 00:00 5.3 C 100 % 1015.7 hPa 0.0 l/m 0.0 km/h (0 Bft) O-SO 0.00 h 0 W/m 5.3 C 5.3 C 0.2 km/h (0 Bft)
13.11.2009 01:00 5.4 C 100 % 1015.6 hPa 0.0 l/m 0.6 km/h (0 Bft) O-SO 0.00 h 0 W/m 5.4 C 5.3 C 1.8 km/h (1 Bft)
13.11.2009 02:00 5.2 C 100 % 1015.6 hPa 0.0 l/m 0.5 km/h (0 Bft) N-NO 0.00 h 0 W/m 5.2 C 5.2 C 1.8 km/h (1 Bft)
13.11.2009 03:00 5.0 C 100 % 1015.7 hPa 0.0 l/m 0.7 km/h (0 Bft) N-NO 0.00 h 0 W/m 5.0 C 5.0 C 1.6 km/h (1 Bft)
13.11.2009 04:00 5.3 C 100 % 1015.6 hPa 0.0 l/m 0.1 km/h (0 Bft) N-NO 0.00 h 0 W/m 5.3 C 5.3 C 0.2 km/h (0 Bft)
13.11.2009 05:00 5.3 C 100 % 1016.0 hPa 0.0 l/m 0.4 km/h (0 Bft) N-NO 0.00 h 0 W/m 5.3 C 5.3 C 0.7 km/h (0 Bft)
13.11.2009 06:00 5.6 C 100 % 1016.1 hPa 0.0 l/m 0.5 km/h (0 Bft) O-SO 0.00 h 0 W/m 5.6 C 5.6 C 1.0 km/h (0 Bft)
13.11.2009 07:00 5.9 C 100 % 1016.5 hPa 0.0 l/m 0.3 km/h (0 Bft) O-SO 0.00 h 10 W/m 5.9 C 5.9 C 1.0 km/h (0 Bft)
13.11.2009 08:00 6.4 C 100 % 1016.8 hPa 0.0 l/m 0.2 km/h (0 Bft) N 0.00 h 29 W/m 6.4 C 6.4 C 0.9 km/h (0 Bft)
13.11.2009 09:00 7.3 C 100 % 1017.0 hPa 0.0 l/m 0.4 km/h (0 Bft) N-NW 0.00 h 85 W/m 7.3 C 7.3 C 1.2 km/h (1 Bft)
13.11.2009 10:00 8.3 C 100 % 1017.0 hPa 0.0 l/m 0.6 km/h (0 Bft) N-NW 0.00 h 85 W/m 8.3 C 8.3 C 1.7 km/h (1 Bft)
13.11.2009 11:00 9.3 C 100 % 1016.7 hPa 0.0 l/m 0.3 km/h (0 Bft) N-NW 0.05 h 173 W/m 9.3 C 9.3 C 1.2 km/h (1 Bft)
13.11.2009 12:00 10.4 C 100 % 1016.2 hPa 0.0 l/m 0.5 km/h (0 Bft) N-NW 0.00 h 186 W/m 10.4 C 10.4 C 1.7 km/h (1 Bft)
13.11.2009 13:00 11.3 C 100 % 1015.6 hPa 0.0 l/m 0.6 km/h (0 Bft) N-NW 0.10 h 180 W/m 11.3 C 11.3 C 1.9 km/h (1 Bft)
13.11.2009 14:00 11.8 C 99 % 1015.6 hPa 0.0 l/m 0.6 km/h (0 Bft) W-NW 0.00 h 110 W/m 11.6 C 11.8 C 1.6 km/h (1 Bft)
13.11.2009 15:00 12.2 C 94 % 1015.7 hPa 0.0 l/m 0.0 km/h (0 Bft) N 0.00 h 52 W/m 11.2 C 12.2 C 0.4 km/h (0 Bft)
13.11.2009 16:00 11.0 C 91 % 1016.0 hPa 0.0 l/m 0.2 km/h (0 Bft) S 0.02 h 17 W/m 9.6 C 11.0 C 0.5 km/h (0 Bft)
13.11.2009 17:00 9.6 C 92 % 1016.2 hPa 0.0 l/m 1.1 km/h (1 Bft) O-SO 0.00 h 0 W/m 8.3 C 9.5 C 2.2 km/h (1 Bft)
13.11.2009 18:00 8.8 C 94 % 1016.6 hPa 0.0 l/m 0.5 km/h (0 Bft) NO 0.00 h 0 W/m 7.9 C 8.8 C 1.4 km/h (1 Bft)
13.11.2009 19:00 8.6 C 96 % 1016.8 hPa 0.0 l/m 0.1 km/h (0 Bft) SO 0.00 h 0 W/m 7.9 C 8.6 C 0.4 km/h (0 Bft)
13.11.2009 20:00 7.8 C 96 % 1016.8 hPa 0.0 l/m 0.3 km/h (0 Bft) SO 0.00 h 0 W/m 7.2 C 7.8 C 0.8 km/h (0 Bft)
13.11.2009 21:00 7.3 C 96 % 1016.9 hPa 0.0 l/m 0.1 km/h (0 Bft) S 0.00 h 0 W/m 6.7 C 7.3 C 0.7 km/h (0 Bft)
13.11.2009 22:00 7.3 C 97 % 1016.6 hPa 0.0 l/m 0.6 km/h (0 Bft) W-SW 0.00 h 0 W/m 6.8 C 7.3 C 1.7 km/h (1 Bft)
13.11.2009 23:00 7.0 C 97 % 1016.0 hPa 0.0 l/m 0.7 km/h (0 Bft) W-SW 0.00 h 0 W/m 6.6 C 7.0 C 1.8 km/h (1 Bft)
14.11.2009 00:00 6.8 C 97 % 1015.3 hPa 0.0 l/m 0.2 km/h (0 Bft) SO 0.00 h 0 W/m 6.3 C 6.7 C 0.6 km/h (0 Bft)
14.11.2009 01:00 6.6 C 98 % 1014.7 hPa 0.0 l/m 0.4 km/h (0 Bft) NW 0.00 h 0 W/m 6.2 C 6.6 C 1.3 km/h (1 Bft)
14.11.2009 02:00 6.3 C 98 % 1014.3 hPa 0.0 l/m 0.0 km/h (0 Bft) N 0.00 h 0 W/m 6.0 C 6.3 C 0.1 km/h (0 Bft)
14.11.2009 03:00 6.0 C 98 % 1013.9 hPa 0.0 l/m 0.3 km/h (0 Bft) N 0.00 h 0 W/m 5.7 C 6.0 C 1.1 km/h (0 Bft)
14.11.2009 04:00 5.8 C 98 % 1013.5 hPa 0.0 l/m 0.3 km/h (0 Bft) N 0.00 h 0 W/m 5.5 C 5.8 C 0.9 km/h (0 Bft)
14.11.2009 05:00 5.5 C 98 % 1013.6 hPa 0.0 l/m 1.9 km/h (1 Bft) SO 0.00 h 0 W/m 5.2 C 5.4 C 3.5 km/h (1 Bft)
14.11.2009 06:00 5.2 C 99 % 1013.5 hPa 0.0 l/m 2.9 km/h (1 Bft) O-SO 0.00 h 0 W/m 5.0 C 4.8 C 5.1 km/h (1 Bft)
14.11.2009 07:00 5.4 C 99 % 1013.6 hPa 0.0 l/m 2.5 km/h (1 Bft) SO 0.00 h 5 W/m 5.3 C 5.3 C 4.3 km/h (1 Bft)
14.11.2009 08:00 5.4 C 99 % 1014.0 hPa 0.0 l/m 0.7 km/h (0 Bft) O-SO 0.00 h 14 W/m 5.3 C 5.4 C 1.6 km/h (1 Bft)
14.11.2009 09:00 5.8 C 99 % 1013.8 hPa 0.2 l/m 0.3 km/h (0 Bft) O-SO 0.00 h 44 W/m 5.7 C 5.8 C 1.1 km/h (1 Bft)
14.11.2009 10:00 6.6 C 100 % 1013.6 hPa 0.0 l/m 0.3 km/h (0 Bft) O-NO 0.03 h 97 W/m 6.6 C 6.6 C 0.8 km/h (0 Bft)
14.11.2009 11:00 8.2 C 99 % 1013.5 hPa 0.0 l/m 0.6 km/h (0 Bft) O 0.30 h 198 W/m 8.2 C 8.2 C 2.0 km/h (1 Bft)
14.11.2009 12:00 9.7 C 99 % 1012.9 hPa 0.0 l/m 1.4 km/h (1 Bft) S-SW 0.68 h 295 W/m 9.6 C 9.7 C 3.5 km/h (1 Bft)
14.11.2009 13:00 10.2 C 98 % 1012.8 hPa 0.0 l/m 0.5 km/h (0 Bft) N-NW 0.00 h 126 W/m 10.0 C 10.2 C 1.7 km/h (1 Bft)
14.11.2009 14:00 10.1 C 97 % 1012.9 hPa 0.0 l/m 1.1 km/h (1 Bft) N-NW 0.00 h 91 W/m 9.7 C 10.1 C 2.8 km/h (1 Bft)
14.11.2009 15:00 9.7 C 96 % 1013.0 hPa 0.0 l/m 0.3 km/h (0 Bft) NO 0.00 h 36 W/m 9.1 C 9.7 C 1.1 km/h (1 Bft)
14.11.2009 16:00 9.6 C 96 % 1013.3 hPa 0.0 l/m 2.9 km/h (1 Bft) O-SO 0.00 h 12 W/m 8.9 C 9.3 C 4.7 km/h (1 Bft)
14.11.2009 17:00 10.1 C 91 % 1014.9 hPa 0.0 l/m 13.6 km/h (3 Bft) W 0.00 h 0 W/m 8.7 C 9.7 C 20.9 km/h (4 Bft)
14.11.2009 18:00 10.2 C 85 % 1016.8 hPa 1.6 l/m 6.1 km/h (2 Bft) W 0.00 h 0 W/m 7.7 C 10.1 C 9.9 km/h (2 Bft)
14.11.2009 19:00 9.4 C 90 % 1017.6 hPa 3.4 l/m 3.4 km/h (1 Bft) O-SO 0.00 h 0 W/m 7.8 C 9.1 C 5.8 km/h (2 Bft)
14.11.2009 20:00 9.1 C 92 % 1017.4 hPa 0.0 l/m 0.5 km/h (0 Bft) S-SO 0.00 h 0 W/m 7.8 C 9.1 C 1.5 km/h (1 Bft)
14.11.2009 21:00 8.3 C 93 % 1017.9 hPa 0.0 l/m 0.4 km/h (0 Bft) O 0.00 h 0 W/m 7.2 C 8.3 C 1.2 km/h (1 Bft)
14.11.2009 22:00 7.6 C 94 % 1018.6 hPa 0.0 l/m 0.4 km/h (0 Bft) S 0.00 h 0 W/m 6.7 C 7.6 C 1.3 km/h (1 Bft)
14.11.2009 23:00 6.8 C 95 % 1018.7 hPa 0.0 l/m 0.8 km/h (0 Bft) O 0.00 h 0 W/m 6.0 C 6.8 C 1.3 km/h (1 Bft)
15.11.2009 00:00 6.2 C 95 % 1018.6 hPa 0.0 l/m 0.0 km/h (0 Bft) N 0.00 h 0 W/m 5.5 C 6.2 C 0.5 km/h (0 Bft)
15.11.2009 01:00 6.1 C 96 % 1018.7 hPa 0.0 l/m 0.0 km/h (0 Bft) O 0.00 h 0 W/m 5.5 C 6.1 C 0.3 km/h (0 Bft)
15.11.2009 02:00 6.2 C 96 % 1018.9 hPa 0.0 l/m 0.0 km/h (0 Bft) N 0.00 h 0 W/m 5.6 C 6.2 C 0.2 km/h (0 Bft)
15.11.2009 03:00 6.1 C 97 % 1018.7 hPa 0.0 l/m 0.0 km/h (0 Bft) O 0.00 h 0 W/m 5.6 C 6.1 C 0.3 km/h (0 Bft)
15.11.2009 04:00 6.2 C 97 % 1018.0 hPa 0.0 l/m 0.3 km/h (0 Bft) O 0.00 h 0 W/m 5.7 C 6.2 C 0.8 km/h (0 Bft)
15.11.2009 05:00 6.3 C 98 % 1017.5 hPa 0.0 l/m 0.0 km/h (0 Bft) N 0.00 h 0 W/m 5.9 C 6.3 C 0.2 km/h (0 Bft)
15.11.2009 06:00 6.4 C 98 % 1017.7 hPa 0.0 l/m 0.0 km/h (0 Bft) N 0.00 h 0 W/m 6.1 C 6.4 C 0.1 km/h (0 Bft)
15.11.2009 07:00 6.5 C 98 % 1017.9 hPa 0.0 l/m 0.0 km/h (0 Bft) N 0.00 h 8 W/m 6.2 C 6.5 C 0.2 km/h (0 Bft)
15.11.2009 08:00 6.6 C 98 % 1018.1 hPa 0.0 l/m 0.4 km/h (0 Bft) W-SW 0.00 h 26 W/m 6.4 C 6.6 C 0.9 km/h (0 Bft)
15.11.2009 09:00 6.8 C 98 % 1018.4 hPa 0.2 l/m 0.1 km/h (0 Bft) W-SW 0.00 h 31 W/m 6.5 C 6.8 C 0.3 km/h (0 Bft)
15.11.2009 10:00 7.0 C 98 % 1018.3 hPa 0.0 l/m 0.1 km/h (0 Bft) W-SW 0.00 h 49 W/m 6.7 C 7.0 C 0.3 km/h (0 Bft)
15.11.2009 11:00 7.4 C 98 % 1018.0 hPa 0.0 l/m 0.1 km/h (0 Bft) W-SW 0.00 h 83 W/m 7.1 C 7.4 C 0.5 km/h (0 Bft)
15.11.2009 12:00 7.9 C 98 % 1017.5 hPa 0.0 l/m 0.1 km/h (0 Bft) W-SW 0.00 h 84 W/m 7.6 C 7.9 C 0.3 km/h (0 Bft)
15.11.2009 13:00 8.2 C 98 % 1017.1 hPa 0.0 l/m 0.0 km/h (0 Bft) N 0.00 h 63 W/m 7.9 C 8.2 C 0.1 km/h (0 Bft)
15.11.2009 14:00 8.3 C 98 % 1016.8 hPa 0.2 l/m 0.2 km/h (0 Bft) W-SW 0.00 h 45 W/m 8.1 C 8.3 C 0.6 km/h (0 Bft)
15.11.2009 15:00 8.6 C 98 % 1016.4 hPa 0.2 l/m 0.0 km/h (0 Bft) W-SW 0.00 h 35 W/m 8.3 C 8.6 C 0.1 km/h (0 Bft)
15.11.2009 16:00 8.7 C 98 % 1015.8 hPa 0.0 l/m 0.0 km/h (0 Bft) N 0.00 h 19 W/m 8.4 C 8.7 C 0.2 km/h (0 Bft)
15.11.2009 17:00 8.3 C 98 % 1015.5 hPa 0.0 l/m 0.0 km/h (0 Bft) W-SW 0.00 h 0 W/m 8.0 C 8.3 C 0.3 km/h (0 Bft)
15.11.2009 18:00 8.1 C 98 % 1015.1 hPa 0.0 l/m 0.0 km/h (0 Bft) N 0.00 h 0 W/m 7.9 C 8.1 C 0.3 km/h (0 Bft)
15.11.2009 19:00 8.1 C 98 % 1014.4 hPa 0.2 l/m 0.3 km/h (0 Bft) S-SW 0.00 h 0 W/m 7.8 C 8.1 C 1.2 km/h (1 Bft)
15.11.2009 20:00 8.0 C 99 % 1014.0 hPa 0.0 l/m 0.8 km/h (0 Bft) S-SW 0.00 h 0 W/m 7.8 C 8.0 C 1.7 km/h (1 Bft)
15.11.2009 21:00 8.0 C 99 % 1014.1 hPa 0.0 l/m 0.1 km/h (0 Bft) O 0.00 h 0 W/m 7.8 C 8.0 C 0.5 km/h (0 Bft)
15.11.2009 22:00 7.9 C 99 % 1014.4 hPa 0.4 l/m 1.0 km/h (0 Bft) O-SO 0.00 h 0 W/m 7.7 C 7.9 C 1.9 km/h (1 Bft)
15.11.2009 23:00 7.9 C 99 % 1014.1 hPa 0.6 l/m 0.5 km/h (0 Bft) O-SO 0.00 h 0 W/m 7.8 C 7.9 C 0.9 km/h (0 Bft)
Min-Datum _ 12.11.09 11.11.09 09.11.09 - 09.11.09 - - - 12.11.09 12.11.09 09.11.09
_ Min-Zeit 00:15 15:46 00:00 - 00:00 - - - 00:15 00:42 00:00
Minimum _ 0.6 C 65 % 1003.7 hPa - 0.0 km/h (0 Bft) - - - -0.1 C -0.8 C 0.0 km/h (0 Bft)
Max-Datum _ 13.11.09 12.11.09 15.11.09 14.11.09 14.11.09 - 09.11.09 11.11.09 13.11.09 13.11.09 14.11.09
_ Max-Zeit 14:52 10:05 02:00 19:01 17:31 - 09:31 12:30 14:45 14:45 17:32
Maximum _ 13.1 C 100 % 1018.9 hPa 3.4 l/m 26.1 km/h
W (4 Bft)
- 0.02 h 515 W/m 12.9 C 12.9 C 40.0 km/h
W-NW (6 Bft)
Durchschnitt _ 5.9 C 95 % 1013.2 hPa #12.4 l/m 1.2 km/h (1 Bft) W #5:05 h 74 W/m 5.1 C 5.8 C 2.4 km/h (1 Bft)
© Kaiko 2009